Terminal Aerodrome Forecast
Issued by NWS

Home | Current Version | Previous Version | Text Only | Print | Product List | Glossary On
Versions: 1 2 3 4 5 6 7 8 9 10 11 12 13 14 15 16 17 18 19 20 21 22 23 24
000
FTUS46 KLOX 021700
TAFOXR
TAF
KOXR 021726Z 0218/0318 00000KT P6SM SKC
     FM021900 27010KT P6SM FEW020
     FM030300 29006KT P6SM OVC008
     FM030800 VRB03KT P6SM OVC010=

USA.gov is the U.S. government's official web portal to all federal, state and local government web resources and services.